createdAt,value
2023-04-23T00:00:12.809Z,12.73
2023-04-23T00:02:46.886Z,11.07
2023-04-23T00:05:16.480Z,12.27
2023-04-23T00:07:45.135Z,14.50
2023-04-23T00:10:14.024Z,14.40
2023-04-23T00:12:43.677Z,14.23
2023-04-23T00:15:13.829Z,15.10
2023-04-23T00:17:43.515Z,12.50
2023-04-23T00:20:11.972Z,13.77
2023-04-23T00:22:40.287Z,14.10
2023-04-23T00:25:09.542Z,12.30
2023-04-23T00:27:37.833Z,13.67
2023-04-23T00:30:07.275Z,12.00
2023-04-23T00:32:35.724Z,11.13
2023-04-23T00:35:05.901Z,12.87
2023-04-23T00:37:35.280Z,12.20
2023-04-23T00:40:04.582Z,12.13
2023-04-23T00:42:33.347Z,12.77
2023-04-23T00:45:02.791Z,12.57
2023-04-23T00:47:31.564Z,10.90
2023-04-23T00:50:00.862Z,11.83
2023-04-23T00:52:30.487Z,12.70
2023-04-23T00:54:58.961Z,12.40
2023-04-23T00:57:27.969Z,12.80
2023-04-23T00:59:58.401Z,12.97
2023-04-23T01:02:28.036Z,12.70
2023-04-23T01:04:57.015Z,12.50
2023-04-23T01:07:25.493Z,12.47
2023-04-23T01:09:55.257Z,10.87
2023-04-23T01:12:24.351Z,11.20
2023-04-23T01:14:53.148Z,12.13
2023-04-23T01:17:21.543Z,11.80
2023-04-23T01:19:50.232Z,12.77
2023-04-23T01:22:19.873Z,12.50
2023-04-23T01:24:49.879Z,11.60
2023-04-23T01:27:19.970Z,12.13
2023-04-23T01:29:49.260Z,12.00
2023-04-23T01:32:18.394Z,11.40
2023-04-23T01:34:48.606Z,13.03
2023-04-23T01:37:18.939Z,11.83
2023-04-23T01:39:47.843Z,12.43
2023-04-23T01:42:16.132Z,11.47
2023-04-23T01:44:44.648Z,10.87
2023-04-23T01:47:12.973Z,11.20
2023-04-23T01:49:41.449Z,11.63
2023-04-23T01:52:09.786Z,11.00
2023-04-23T01:54:39.606Z,10.60
2023-04-23T01:57:07.978Z,11.90
2023-04-23T01:59:36.741Z,12.77
2023-04-23T02:02:05.103Z,10.73
2023-04-23T02:04:34.397Z,11.67
2023-04-23T02:07:02.680Z,11.93
2023-04-23T02:09:30.963Z,12.03
2023-04-23T02:12:04.065Z,11.90
2023-04-23T02:14:32.735Z,13.00
2023-04-23T02:17:00.965Z,13.13
2023-04-23T02:19:31.091Z,13.03
2023-04-23T02:21:59.293Z,10.47
2023-04-23T02:24:27.516Z,12.60
2023-04-23T02:26:55.761Z,12.83
2023-04-23T02:29:25.320Z,11.90
2023-04-23T02:31:53.644Z,11.70
2023-04-23T02:34:21.897Z,12.20
2023-04-23T02:36:50.086Z,11.73
2023-04-23T02:39:18.303Z,13.00
2023-04-23T02:41:46.462Z,12.10
2023-04-23T02:44:14.721Z,11.80
2023-04-23T02:46:44.434Z,12.47
2023-04-23T02:49:12.729Z,11.90
2023-04-23T02:51:41.121Z,13.00
2023-04-23T02:54:09.388Z,11.87
2023-04-23T02:56:37.559Z,11.23
2023-04-23T02:59:06.600Z,12.80
2023-04-23T03:01:34.809Z,12.47
2023-04-23T03:04:05.430Z,11.47
2023-04-23T03:06:34.540Z,12.60
2023-04-23T03:09:02.998Z,11.67
2023-04-23T03:11:31.296Z,10.63
2023-04-23T03:13:59.993Z,11.03
2023-04-23T03:16:28.768Z,11.23
2023-04-23T03:18:57.287Z,10.33
2023-04-23T03:21:27.273Z,11.67
2023-04-23T03:23:55.541Z,10.90
2023-04-23T03:26:24.241Z,11.63
2023-04-23T03:28:52.884Z,11.57
2023-04-23T03:31:21.334Z,12.03
2023-04-23T03:33:49.677Z,10.50
2023-04-23T03:36:24.102Z,11.10
2023-04-23T03:38:53.642Z,11.47
2023-04-23T03:41:22.115Z,11.70
2023-04-23T03:43:51.330Z,10.50
2023-04-23T03:46:23.298Z,11.83
2023-04-23T03:48:51.618Z,11.90
2023-04-23T03:51:27.399Z,10.60
2023-04-23T03:53:57.979Z,12.40
2023-04-23T03:56:37.686Z,10.60
2023-04-23T03:59:19.084Z,11.30
2023-04-23T04:01:49.692Z,12.67
2023-04-23T04:04:19.829Z,10.63
2023-04-23T04:06:50.505Z,12.60
2023-04-23T04:09:20.359Z,11.77
2023-04-23T04:11:48.646Z,12.10
2023-04-23T04:14:17.456Z,12.37
2023-04-23T04:16:45.952Z,12.47
2023-04-23T04:19:14.446Z,12.60
2023-04-23T04:21:42.769Z,13.90
2023-04-23T04:24:11.565Z,13.10
2023-04-23T04:26:42.099Z,13.50
2023-04-23T04:29:10.597Z,13.70
2023-04-23T04:31:39.142Z,15.33
2023-04-23T04:34:09.074Z,13.40
2023-04-23T04:36:37.245Z,14.33
2023-04-23T04:39:06.578Z,15.17
2023-04-23T04:41:34.990Z,14.77
2023-04-23T04:44:04.562Z,13.73
2023-04-23T04:46:33.968Z,13.63
2023-04-23T04:49:02.206Z,13.80
2023-04-23T04:51:30.425Z,14.33
2023-04-23T04:53:58.832Z,14.27
2023-04-23T04:56:27.073Z,13.87
2023-04-23T04:58:55.299Z,13.33
2023-04-23T05:01:26.767Z,12.77
2023-04-23T05:03:55.081Z,13.53
2023-04-23T05:06:23.534Z,13.27
2023-04-23T05:08:51.895Z,12.60
2023-04-23T05:11:21.038Z,11.43
2023-04-23T05:13:50.088Z,13.40
2023-04-23T05:16:18.347Z,11.90
2023-04-23T05:18:48.147Z,14.87
2023-04-23T05:21:16.743Z,13.90
2023-04-23T05:23:44.925Z,12.87
2023-04-23T05:26:13.137Z,12.47
2023-04-23T05:28:41.675Z,12.57
2023-04-23T05:31:09.965Z,11.60
2023-04-23T05:33:49.409Z,11.70
2023-04-23T05:36:20.476Z,12.47
2023-04-23T05:38:49.255Z,11.30
2023-04-23T05:41:17.624Z,12.27
2023-04-23T05:43:45.855Z,10.33
2023-04-23T05:46:14.098Z,11.53
2023-04-23T05:48:42.372Z,10.13
2023-04-23T05:51:10.674Z,10.57
2023-04-23T05:53:40.278Z,11.43
2023-04-23T05:56:08.647Z,9.87
2023-04-23T05:58:38.820Z,10.30
2023-04-23T06:01:07.173Z,9.90
2023-04-23T06:03:37.086Z,9.57
2023-04-23T06:06:05.694Z,10.70
2023-04-23T06:08:33.919Z,9.70
2023-04-23T06:11:03.570Z,9.87
2023-04-23T06:13:31.936Z,9.20
2023-04-23T06:16:00.451Z,9.20
2023-04-23T06:18:28.836Z,9.50
2023-04-23T06:20:57.403Z,10.30
2023-04-23T06:23:25.645Z,9.13
2023-04-23T06:25:53.955Z,9.83
2023-04-23T06:28:23.617Z,9.17
2023-04-23T06:31:10.584Z,10.13
2023-04-23T06:33:38.951Z,10.60
2023-04-23T06:36:09.533Z,10.80
2023-04-23T06:38:37.845Z,12.60
2023-04-23T06:41:06.483Z,12.20
2023-04-23T06:43:36.086Z,12.83
2023-04-23T06:46:21.768Z,12.93
2023-04-23T06:48:49.988Z,11.77
2023-04-23T06:51:18.510Z,11.50
2023-04-23T06:53:47.525Z,10.40
2023-04-23T06:56:15.828Z,10.20
2023-04-23T06:58:45.352Z,9.80
2023-04-23T07:01:19.770Z,11.30
2023-04-23T07:03:49.266Z,9.77
2023-04-23T07:06:17.743Z,9.20
2023-04-23T07:08:46.087Z,10.40
2023-04-23T07:11:14.637Z,9.67
2023-04-23T07:13:45.020Z,7.67
2023-04-23T07:16:13.284Z,8.30
2023-04-23T07:18:41.687Z,7.50
2023-04-23T07:21:09.993Z,7.87
2023-04-23T07:23:38.257Z,7.13
2023-04-23T07:26:06.503Z,6.77
2023-04-23T07:28:34.751Z,5.90
2023-04-23T07:31:04.770Z,6.67
2023-04-23T07:33:33.032Z,5.60
2023-04-23T07:36:01.251Z,5.30
2023-04-23T07:38:29.486Z,5.17
2023-04-23T07:40:57.988Z,5.10
2023-04-23T07:43:26.192Z,4.60
2023-04-23T07:45:54.451Z,5.10
2023-04-23T07:48:24.176Z,4.20
2023-04-23T07:50:52.479Z,3.93
2023-04-23T07:53:20.758Z,5.10
2023-04-23T07:55:49.061Z,4.67
2023-04-23T07:58:17.345Z,3.40
2023-04-23T08:00:45.674Z,3.07
2023-04-23T08:03:14.256Z,3.50
2023-04-23T08:05:44.256Z,3.40
2023-04-23T08:08:13.908Z,3.27
2023-04-23T08:10:42.487Z,3.00
2023-04-23T08:13:11.167Z,2.73
2023-04-23T08:15:39.421Z,2.80
2023-04-23T08:18:07.971Z,2.40
2023-04-23T08:20:36.555Z,2.67
2023-04-23T08:23:06.267Z,2.23
2023-04-23T08:25:34.719Z,2.60
2023-04-23T08:28:03.796Z,2.37
2023-04-23T08:30:32.076Z,2.60
2023-04-23T08:33:03.798Z,3.00
2023-04-23T08:35:32.099Z,2.43
2023-04-23T08:38:01.699Z,2.43
2023-04-23T08:40:36.448Z,2.37
2023-04-23T08:43:11.174Z,2.20
2023-04-23T08:45:44.418Z,2.70
2023-04-23T08:48:12.830Z,2.77
2023-04-23T08:50:44.270Z,2.33
2023-04-23T08:53:16.684Z,2.57
2023-04-23T08:55:46.979Z,2.53
2023-04-23T08:58:15.767Z,3.00
2023-04-23T09:00:44.942Z,2.20
2023-04-23T09:03:13.670Z,2.80
2023-04-23T09:05:42.224Z,2.13
2023-04-23T09:08:11.935Z,3.17
2023-04-23T09:10:43.257Z,2.90
2023-04-23T09:13:13.885Z,2.20
2023-04-23T09:15:43.816Z,2.67
2023-04-23T09:18:12.198Z,2.60
2023-04-23T09:20:40.833Z,2.53
2023-04-23T09:23:09.448Z,2.03
2023-04-23T09:25:37.911Z,3.00
2023-04-23T09:28:09.045Z,2.17
2023-04-23T09:30:44.172Z,2.23
2023-04-23T09:33:13.548Z,2.30
2023-04-23T09:35:43.344Z,2.00
2023-04-23T09:38:11.600Z,2.13
2023-04-23T09:40:39.844Z,1.90
2023-04-23T09:43:12.051Z,1.90
2023-04-23T09:45:50.537Z,1.60
2023-04-23T09:48:18.841Z,1.63
2023-04-23T09:50:47.610Z,2.73
2023-04-23T09:53:15.879Z,1.93
2023-04-23T09:55:46.275Z,1.90
2023-04-23T09:58:16.322Z,2.17
2023-04-23T10:00:44.979Z,1.47
2023-04-23T10:03:14.946Z,1.50
2023-04-23T10:06:00.248Z,1.80
2023-04-23T10:08:30.006Z,2.00
2023-04-23T10:11:10.173Z,1.50
2023-04-23T10:13:46.948Z,2.00
2023-04-23T10:16:22.428Z,1.43
2023-04-23T10:18:56.978Z,1.67
2023-04-23T10:21:33.978Z,1.70
2023-04-23T10:24:10.756Z,2.00
2023-04-23T10:26:40.256Z,1.63
2023-04-23T10:29:14.531Z,2.03
2023-04-23T10:31:44.577Z,1.90
2023-04-23T10:34:14.651Z,1.50
2023-04-23T10:36:43.071Z,1.67
2023-04-23T10:39:12.352Z,1.20
2023-04-23T10:41:43.393Z,1.37
2023-04-23T10:44:15.940Z,1.30
2023-04-23T10:46:53.728Z,1.80
2023-04-23T10:49:24.878Z,1.20
2023-04-23T10:54:34.035Z,0.90
2023-04-23T10:57:04.207Z,1.60
2023-04-23T10:59:33.813Z,1.20
2023-04-23T11:02:08.826Z,1.10
2023-04-23T11:04:45.926Z,1.90
2023-04-23T11:07:15.026Z,1.20
2023-04-23T11:09:45.274Z,1.13
2023-04-23T11:12:14.987Z,1.30
2023-04-23T11:14:47.517Z,1.20
2023-04-23T11:17:17.713Z,1.20
2023-04-23T11:20:13.795Z,1.20
2023-04-23T11:22:44.459Z,1.13
2023-04-23T11:25:14.979Z,1.73
2023-04-23T11:27:44.693Z,1.07
2023-04-23T11:30:14.816Z,1.10
2023-04-23T11:32:45.615Z,1.63
2023-04-23T11:35:16.877Z,1.00
2023-04-23T11:37:45.925Z,1.30
2023-04-23T11:40:19.068Z,1.00
2023-04-23T11:42:50.504Z,1.20
2023-04-23T11:45:19.215Z,1.17
2023-04-23T11:47:48.767Z,1.43
2023-04-23T11:50:22.896Z,1.20
2023-04-23T11:52:52.666Z,1.20
2023-04-23T11:55:21.673Z,1.00
2023-04-23T11:57:51.403Z,1.60
2023-04-23T12:00:21.418Z,1.17
2023-04-23T12:02:57.948Z,1.40
2023-04-23T12:05:32.857Z,1.77
2023-04-23T12:08:11.616Z,1.40
2023-04-23T12:10:47.574Z,1.70
2023-04-23T12:13:16.969Z,1.13
2023-04-23T12:15:50.117Z,1.20
2023-04-23T12:18:19.544Z,1.60
2023-04-23T12:20:49.473Z,1.67
2023-04-23T12:23:17.750Z,1.50
2023-04-23T12:25:46.080Z,1.37
2023-04-23T12:28:14.305Z,1.20
2023-04-23T12:30:46.178Z,1.33
2023-04-23T12:33:14.823Z,1.37
2023-04-23T12:35:43.857Z,1.40
2023-04-23T12:38:24.776Z,1.40
2023-04-23T12:40:53.344Z,2.00
2023-04-23T12:43:21.629Z,0.97
2023-04-23T12:45:51.186Z,1.30
2023-04-23T12:48:19.933Z,1.60
2023-04-23T12:50:48.883Z,1.63
2023-04-23T12:53:17.262Z,1.40
2023-04-23T12:55:48.403Z,1.60
2023-04-23T12:58:16.608Z,1.70
2023-04-23T13:00:44.956Z,1.10
2023-04-23T13:03:15.566Z,1.43
2023-04-23T13:05:44.047Z,2.07
2023-04-23T13:08:12.281Z,1.00
2023-04-23T13:10:40.418Z,1.13
2023-04-23T13:13:09.973Z,1.60
2023-04-23T13:15:38.192Z,1.63
2023-04-23T13:18:07.082Z,1.37
2023-04-23T13:20:35.272Z,1.00
2023-04-23T13:23:03.838Z,1.27
2023-04-23T13:25:32.094Z,1.40
2023-04-23T13:28:00.446Z,1.10
2023-04-23T13:30:30.037Z,1.77
2023-04-23T13:32:59.279Z,1.00
2023-04-23T13:35:27.616Z,1.80
2023-04-23T13:37:55.856Z,1.40
2023-04-23T13:40:24.090Z,1.40
2023-04-23T13:42:55.020Z,1.13
2023-04-23T13:45:23.304Z,1.67
2023-04-23T13:47:52.966Z,1.20
2023-04-23T13:50:21.488Z,1.13
2023-04-23T13:52:49.802Z,1.40
2023-04-23T13:55:18.296Z,1.73
2023-04-23T13:57:46.590Z,1.33
2023-04-23T14:00:16.025Z,1.07
2023-04-23T14:02:44.315Z,1.20
2023-04-23T14:05:13.987Z,1.60
2023-04-23T14:07:42.331Z,1.20
2023-04-23T14:10:11.324Z,1.20
2023-04-23T14:12:39.927Z,1.37
2023-04-23T14:15:09.674Z,1.07
2023-04-23T14:17:40.824Z,1.30
2023-04-23T14:20:09.722Z,1.00
2023-04-23T14:22:39.645Z,1.53
2023-04-23T14:25:11.305Z,1.27
2023-04-23T14:27:42.412Z,1.70
2023-04-23T14:30:17.021Z,0.90
2023-04-23T14:32:49.305Z,1.30
2023-04-23T14:35:24.558Z,1.10
2023-04-23T14:37:59.001Z,1.00
2023-04-23T14:40:27.264Z,1.23
2023-04-23T14:42:59.370Z,1.20
2023-04-23T14:45:33.164Z,1.33
2023-04-23T14:48:01.694Z,1.30
2023-04-23T14:50:29.953Z,1.80
2023-04-23T14:52:59.528Z,1.37
2023-04-23T14:55:27.952Z,0.93
2023-04-23T14:57:56.182Z,1.10
2023-04-23T15:00:24.531Z,1.10
2023-04-23T15:02:53.297Z,1.50
2023-04-23T15:05:21.787Z,1.30
2023-04-23T15:07:51.470Z,1.47
2023-04-23T15:10:23.248Z,1.30
2023-04-23T15:12:57.912Z,1.30
2023-04-23T15:15:43.807Z,1.33
2023-04-23T15:18:14.420Z,1.60
2023-04-23T15:20:43.071Z,1.50
2023-04-23T15:23:11.571Z,1.47
2023-04-23T15:25:41.215Z,1.73
2023-04-23T15:28:09.545Z,1.43
2023-04-23T15:30:39.743Z,1.43
2023-04-23T15:33:08.111Z,1.67
2023-04-23T15:35:36.434Z,1.27
2023-04-23T15:38:05.024Z,1.40
2023-04-23T15:40:33.364Z,1.80
2023-04-23T15:43:03.118Z,1.30
2023-04-23T15:45:31.498Z,1.50
2023-04-23T15:47:59.763Z,1.60
2023-04-23T15:50:28.014Z,1.70
2023-04-23T15:52:58.293Z,1.40
2023-04-23T15:55:27.003Z,0.90
2023-04-23T15:57:55.278Z,1.60
2023-04-23T16:00:24.923Z,1.43
2023-04-23T16:02:53.481Z,1.60
2023-04-23T16:05:22.109Z,1.70
2023-04-23T16:07:50.357Z,1.80
2023-04-23T16:10:18.661Z,1.53
2023-04-23T16:12:48.579Z,1.47
2023-04-23T16:15:17.056Z,1.60
2023-04-23T16:17:46.721Z,1.10
2023-04-23T16:20:15.062Z,1.53
2023-04-23T16:22:43.271Z,1.60
2023-04-23T16:25:12.416Z,1.50
2023-04-23T16:27:41.271Z,2.40
2023-04-23T16:30:10.340Z,2.27
2023-04-23T16:32:38.853Z,2.83
2023-04-23T16:35:09.566Z,2.20
2023-04-23T16:37:37.800Z,2.40
2023-04-23T16:40:07.205Z,3.90
2023-04-23T16:42:35.546Z,3.27
2023-04-23T16:45:03.822Z,2.90
2023-04-23T16:47:32.003Z,2.53
2023-04-23T16:50:00.522Z,2.17
2023-04-23T16:52:30.202Z,2.00
2023-04-23T16:54:58.425Z,1.73
2023-04-23T16:57:27.247Z,1.60
2023-04-23T16:59:55.579Z,1.63
2023-04-23T17:02:23.968Z,1.43
2023-04-23T17:04:52.399Z,1.40
2023-04-23T17:07:21.297Z,1.70
2023-04-23T17:09:50.944Z,1.30
2023-04-23T17:12:20.382Z,1.33
2023-04-23T17:14:48.545Z,1.30
2023-04-23T17:17:16.866Z,1.37
2023-04-23T17:19:47.837Z,0.90
2023-04-23T17:22:16.368Z,1.27
2023-04-23T17:24:44.916Z,2.10
2023-04-23T17:27:15.070Z,1.20
2023-04-23T17:29:43.323Z,1.60
2023-04-23T17:32:11.826Z,1.97
2023-04-23T17:34:40.433Z,2.07
2023-04-23T17:37:08.854Z,1.57
2023-04-23T17:39:37.368Z,2.00
2023-04-23T17:42:07.452Z,1.70
2023-04-23T17:44:37.318Z,1.73
2023-04-23T17:47:05.902Z,1.87
2023-04-23T17:49:34.149Z,2.10
2023-04-23T17:52:03.358Z,1.63
2023-04-23T17:54:31.816Z,1.77
2023-04-23T17:57:00.236Z,1.00
2023-04-23T17:59:28.965Z,1.40
2023-04-23T18:01:58.747Z,1.00
2023-04-23T18:04:28.458Z,1.00
2023-04-23T18:06:56.960Z,1.30
2023-04-23T18:09:25.347Z,1.10
2023-04-23T18:11:53.691Z,1.20
2023-04-23T18:14:22.058Z,1.30
2023-04-23T18:16:50.826Z,1.27
2023-04-23T18:19:20.526Z,1.17
2023-04-23T18:21:49.993Z,1.30
2023-04-23T18:24:18.696Z,1.13
2023-04-23T18:26:48.590Z,1.13
2023-04-23T18:29:16.866Z,1.03
2023-04-23T18:31:45.215Z,1.57
2023-04-23T18:34:19.194Z,1.10
2023-04-23T18:36:50.765Z,1.40
2023-04-23T18:39:19.048Z,1.50
2023-04-23T18:41:48.525Z,1.40
2023-04-23T18:44:17.409Z,1.50
2023-04-23T18:46:45.807Z,1.60
2023-04-23T18:49:44.772Z,1.43
2023-04-23T18:52:14.907Z,1.47
2023-04-23T18:54:44.218Z,1.20
2023-04-23T18:57:12.620Z,1.27
2023-04-23T18:59:41.511Z,1.20
2023-04-23T19:02:10.937Z,1.40
2023-04-23T19:04:40.501Z,1.13
2023-04-23T19:07:08.989Z,1.40
2023-04-23T19:09:40.195Z,1.30
2023-04-23T19:12:08.841Z,1.60
2023-04-23T19:14:37.080Z,1.30
2023-04-23T19:17:05.476Z,1.17
2023-04-23T19:19:35.511Z,1.43
2023-04-23T19:22:04.063Z,1.43
2023-04-23T19:24:34.386Z,1.77
2023-04-23T19:27:05.428Z,1.50
2023-04-23T19:29:33.964Z,1.40
2023-04-23T19:32:02.508Z,1.07
2023-04-23T19:34:30.883Z,1.00
2023-04-23T19:36:59.340Z,1.00
2023-04-23T19:39:27.761Z,0.93
2023-04-23T19:41:56.219Z,0.83
2023-04-23T19:44:26.036Z,0.90
2023-04-23T19:46:57.573Z,0.70
2023-04-23T19:49:29.095Z,0.60
2023-04-23T19:51:58.732Z,0.70
2023-04-23T19:54:27.557Z,0.70
2023-04-23T19:56:55.837Z,0.57
2023-04-23T19:59:25.443Z,0.50
2023-04-23T20:01:53.775Z,0.60
2023-04-23T20:04:22.202Z,0.70
2023-04-23T20:06:50.915Z,0.60
2023-04-23T20:09:20.384Z,0.60
2023-04-23T20:11:48.946Z,0.60
2023-04-23T20:14:17.165Z,0.67
2023-04-23T20:16:47.425Z,0.50
2023-04-23T20:19:15.958Z,0.80
2023-04-23T20:21:45.688Z,0.77
2023-04-23T20:24:15.027Z,0.60
2023-04-23T20:26:43.598Z,0.50
2023-04-23T20:29:11.829Z,0.97
2023-04-23T20:31:40.175Z,0.80
2023-04-23T20:34:11.002Z,0.60
2023-04-23T20:36:39.262Z,0.70
2023-04-23T20:39:08.222Z,0.60
2023-04-23T20:41:36.696Z,0.70
2023-04-23T20:44:06.080Z,0.50
2023-04-23T20:46:34.398Z,1.13
2023-04-23T20:49:03.280Z,0.90
2023-04-23T20:51:34.316Z,0.70
2023-04-23T20:54:02.999Z,0.60
2023-04-23T20:56:31.638Z,0.70
2023-04-23T20:58:59.948Z,0.70
2023-04-23T21:01:28.437Z,0.70
2023-04-23T21:03:56.975Z,0.87
2023-04-23T21:06:25.471Z,0.73
2023-04-23T21:08:55.078Z,0.67
2023-04-23T21:11:24.808Z,0.70
2023-04-23T21:13:53.351Z,0.70
2023-04-23T21:16:21.735Z,0.60
2023-04-23T21:18:49.963Z,0.70
2023-04-23T21:21:18.204Z,0.60
2023-04-23T21:23:47.316Z,0.80
2023-04-23T21:26:16.901Z,0.70
2023-04-23T21:28:45.230Z,0.83
2023-04-23T21:31:18.813Z,0.80
2023-04-23T21:33:47.129Z,0.70
2023-04-23T21:36:15.773Z,0.80
2023-04-23T21:38:44.164Z,0.80
2023-04-23T21:41:12.446Z,0.70
2023-04-23T21:43:42.048Z,0.70
2023-04-23T21:46:10.334Z,0.80
2023-04-23T21:48:38.650Z,1.00
2023-04-23T21:51:07.873Z,0.80
2023-04-23T21:53:36.120Z,0.60
2023-04-23T21:56:04.459Z,0.80
2023-04-23T21:58:34.706Z,0.80
2023-04-23T22:01:04.578Z,0.70
2023-04-23T22:03:38.145Z,0.80
2023-04-23T22:06:09.505Z,0.80
2023-04-23T22:08:40.368Z,0.80
2023-04-23T22:11:09.418Z,0.70
2023-04-23T22:13:37.921Z,0.97
2023-04-23T22:16:20.439Z,0.90
2023-04-23T22:18:55.519Z,0.80
2023-04-23T22:21:23.943Z,1.03
2023-04-23T22:23:52.209Z,0.83
2023-04-23T22:26:21.174Z,1.00
2023-04-23T22:28:49.377Z,0.90
2023-04-23T22:31:19.312Z,0.90
2023-04-23T22:33:47.658Z,1.03
2023-04-23T22:36:16.884Z,0.80
2023-04-23T22:38:45.455Z,0.83
2023-04-23T22:41:13.694Z,0.87
2023-04-23T22:43:41.946Z,0.90
2023-04-23T22:46:10.594Z,1.10
2023-04-23T22:48:45.055Z,0.80
2023-04-23T22:51:13.376Z,0.73
2023-04-23T22:53:41.826Z,0.80
2023-04-23T22:56:10.247Z,0.70
2023-04-23T22:58:38.669Z,0.60
2023-04-23T23:01:06.957Z,0.70
2023-04-23T23:03:35.497Z,0.83
2023-04-23T23:06:05.517Z,0.60
2023-04-23T23:08:33.754Z,0.70
2023-04-23T23:11:02.130Z,0.60
2023-04-23T23:13:30.655Z,0.80
2023-04-23T23:16:02.244Z,0.70
2023-04-23T23:18:30.543Z,0.73
2023-04-23T23:20:58.764Z,1.00
2023-04-23T23:23:28.355Z,0.80
2023-04-23T23:25:58.235Z,0.73
2023-04-23T23:28:28.154Z,0.80
2023-04-23T23:30:57.793Z,0.80
2023-04-23T23:33:27.096Z,0.80
2023-04-23T23:35:55.753Z,0.67
2023-04-23T23:38:23.917Z,0.67
2023-04-23T23:40:53.592Z,1.07
2023-04-23T23:43:21.794Z,0.90
2023-04-23T23:45:50.054Z,0.80
2023-04-23T23:48:18.728Z,0.77
2023-04-23T23:50:46.990Z,1.17
2023-04-23T23:53:15.282Z,1.13
2023-04-23T23:55:43.519Z,0.97
2023-04-23T23:58:13.116Z,1.00
